sensor_id;sensor_type;location;lat;lon;timestamp;P1;durP1;ratioP1;P2;durP2;ratioP2
57107;SDS011;42987;52.916;6.542;2023-04-30T00:01:03;10.77;;;6.47;;
57107;SDS011;42987;52.916;6.542;2023-04-30T00:03:29;8.77;;;5.53;;
57107;SDS011;42987;52.916;6.542;2023-04-30T00:05:54;8.93;;;5.65;;
57107;SDS011;42987;52.916;6.542;2023-04-30T00:08:20;7.35;;;5.72;;
57107;SDS011;42987;52.916;6.542;2023-04-30T00:10:46;8.35;;;5.97;;
57107;SDS011;42987;52.916;6.542;2023-04-30T00:13:12;9.13;;;5.80;;
57107;SDS011;42987;52.916;6.542;2023-04-30T00:15:38;13.60;;;6.43;;
57107;SDS011;42987;52.916;6.542;2023-04-30T00:18:05;9.38;;;6.68;;
57107;SDS011;42987;52.916;6.542;2023-04-30T00:20:31;12.35;;;7.13;;
57107;SDS011;42987;52.916;6.542;2023-04-30T00:22:59;8.43;;;6.07;;
57107;SDS011;42987;52.916;6.542;2023-04-30T00:25:25;9.93;;;5.30;;
57107;SDS011;42987;52.916;6.542;2023-04-30T00:27:51;10.88;;;6.28;;
57107;SDS011;42987;52.916;6.542;2023-04-30T00:30:17;11.10;;;5.75;;
57107;SDS011;42987;52.916;6.542;2023-04-30T00:32:42;10.43;;;5.60;;
57107;SDS011;42987;52.916;6.542;2023-04-30T00:35:10;9.40;;;5.20;;
57107;SDS011;42987;52.916;6.542;2023-04-30T00:37:36;12.32;;;6.45;;
57107;SDS011;42987;52.916;6.542;2023-04-30T00:40:11;12.70;;;5.18;;
57107;SDS011;42987;52.916;6.542;2023-04-30T00:42:40;8.65;;;5.30;;
57107;SDS011;42987;52.916;6.542;2023-04-30T00:45:06;10.07;;;5.70;;
57107;SDS011;42987;52.916;6.542;2023-04-30T00:47:32;9.65;;;5.53;;
57107;SDS011;42987;52.916;6.542;2023-04-30T00:49:58;8.23;;;5.05;;
57107;SDS011;42987;52.916;6.542;2023-04-30T00:52:25;10.23;;;6.03;;
57107;SDS011;42987;52.916;6.542;2023-04-30T00:54:51;12.75;;;5.57;;
57107;SDS011;42987;52.916;6.542;2023-04-30T00:57:19;11.88;;;6.20;;
57107;SDS011;42987;52.916;6.542;2023-04-30T00:59:45;10.63;;;5.38;;
57107;SDS011;42987;52.916;6.542;2023-04-30T01:02:12;8.48;;;5.22;;
57107;SDS011;42987;52.916;6.542;2023-04-30T01:04:39;8.63;;;5.45;;
57107;SDS011;42987;52.916;6.542;2023-04-30T01:07:04;9.35;;;5.28;;
57107;SDS011;42987;52.916;6.542;2023-04-30T01:09:31;12.63;;;5.97;;
57107;SDS011;42987;52.916;6.542;2023-04-30T01:20:14;6.90;;;5.07;;
57107;SDS011;42987;52.916;6.542;2023-04-30T01:28:00;8.13;;;5.50;;
57107;SDS011;42987;52.916;6.542;2023-04-30T01:30:34;9.55;;;5.28;;
57107;SDS011;42987;52.916;6.542;2023-04-30T01:33:01;9.20;;;5.75;;
57107;SDS011;42987;52.916;6.542;2023-04-30T01:46:57;11.80;;;7.32;;
57107;SDS011;42987;52.916;6.542;2023-04-30T01:52:17;11.00;;;6.40;;
57107;SDS011;42987;52.916;6.542;2023-04-30T01:54:59;10.27;;;7.22;;
57107;SDS011;42987;52.916;6.542;2023-04-30T01:57:34;9.75;;;6.53;;
57107;SDS011;42987;52.916;6.542;2023-04-30T02:00:09;11.43;;;5.90;;
57107;SDS011;42987;52.916;6.542;2023-04-30T02:02:36;7.72;;;5.57;;
57107;SDS011;42987;52.916;6.542;2023-04-30T02:05:02;9.07;;;5.65;;
57107;SDS011;42987;52.916;6.542;2023-04-30T02:10:11;8.30;;;5.53;;
57107;SDS011;42987;52.916;6.542;2023-04-30T02:12:37;9.57;;;5.68;;
57107;SDS011;42987;52.916;6.542;2023-04-30T02:15:03;8.80;;;5.28;;
57107;SDS011;42987;52.916;6.542;2023-04-30T02:17:30;8.52;;;5.90;;
57107;SDS011;42987;52.916;6.542;2023-04-30T02:19:57;11.52;;;6.22;;
57107;SDS011;42987;52.916;6.542;2023-04-30T02:22:23;10.00;;;5.88;;
57107;SDS011;42987;52.916;6.542;2023-04-30T02:24:50;7.63;;;5.20;;
57107;SDS011;42987;52.916;6.542;2023-04-30T02:27:19;9.10;;;5.40;;
57107;SDS011;42987;52.916;6.542;2023-04-30T02:29:46;10.38;;;5.72;;
57107;SDS011;42987;52.916;6.542;2023-04-30T02:32:12;10.30;;;5.88;;
57107;SDS011;42987;52.916;6.542;2023-04-30T02:34:38;11.90;;;7.03;;
57107;SDS011;42987;52.916;6.542;2023-04-30T02:37:05;17.73;;;10.95;;
57107;SDS011;42987;52.916;6.542;2023-04-30T02:39:31;25.58;;;12.57;;
57107;SDS011;42987;52.916;6.542;2023-04-30T02:41:57;10.18;;;5.43;;
57107;SDS011;42987;52.916;6.542;2023-04-30T02:44:23;19.55;;;10.77;;
57107;SDS011;42987;52.916;6.542;2023-04-30T02:46:51;9.80;;;5.60;;
57107;SDS011;42987;52.916;6.542;2023-04-30T02:49:17;8.98;;;6.00;;
57107;SDS011;42987;52.916;6.542;2023-04-30T02:51:43;10.55;;;7.13;;
57107;SDS011;42987;52.916;6.542;2023-04-30T02:54:08;11.35;;;5.88;;
57107;SDS011;42987;52.916;6.542;2023-04-30T02:56:34;10.57;;;6.28;;
57107;SDS011;42987;52.916;6.542;2023-04-30T02:59:00;9.75;;;5.90;;
57107;SDS011;42987;52.916;6.542;2023-04-30T03:01:26;10.80;;;6.55;;
57107;SDS011;42987;52.916;6.542;2023-04-30T03:03:51;14.02;;;7.13;;
57107;SDS011;42987;52.916;6.542;2023-04-30T03:06:17;10.13;;;6.43;;
57107;SDS011;42987;52.916;6.542;2023-04-30T03:08:43;9.20;;;5.95;;
57107;SDS011;42987;52.916;6.542;2023-04-30T03:11:09;9.68;;;6.15;;
57107;SDS011;42987;52.916;6.542;2023-04-30T03:13:35;9.27;;;6.78;;
57107;SDS011;42987;52.916;6.542;2023-04-30T03:16:01;9.38;;;7.22;;
57107;SDS011;42987;52.916;6.542;2023-04-30T03:18:30;9.10;;;7.18;;
57107;SDS011;42987;52.916;6.542;2023-04-30T03:20:57;13.65;;;7.50;;
57107;SDS011;42987;52.916;6.542;2023-04-30T03:23:23;13.77;;;7.82;;
57107;SDS011;42987;52.916;6.542;2023-04-30T03:25:51;11.52;;;8.10;;
57107;SDS011;42987;52.916;6.542;2023-04-30T03:28:16;14.35;;;8.38;;
57107;SDS011;42987;52.916;6.542;2023-04-30T03:30:42;14.13;;;8.75;;
57107;SDS011;42987;52.916;6.542;2023-04-30T03:33:08;11.00;;;8.60;;
57107;SDS011;42987;52.916;6.542;2023-04-30T03:35:34;13.30;;;8.70;;
57107;SDS011;42987;52.916;6.542;2023-04-30T03:38:00;12.70;;;9.40;;
57107;SDS011;42987;52.916;6.542;2023-04-30T03:40:26;13.68;;;9.32;;
57107;SDS011;42987;52.916;6.542;2023-04-30T03:42:52;17.05;;;9.73;;
57107;SDS011;42987;52.916;6.542;2023-04-30T03:45:21;11.35;;;8.93;;
57107;SDS011;42987;52.916;6.542;2023-04-30T03:47:47;11.45;;;8.75;;
57107;SDS011;42987;52.916;6.542;2023-04-30T03:50:13;11.15;;;7.60;;
57107;SDS011;42987;52.916;6.542;2023-04-30T03:52:40;10.02;;;8.82;;
57107;SDS011;42987;52.916;6.542;2023-04-30T03:55:06;11.18;;;8.13;;
57107;SDS011;42987;52.916;6.542;2023-04-30T03:57:31;11.50;;;8.48;;
57107;SDS011;42987;52.916;6.542;2023-04-30T03:59:57;11.65;;;8.18;;
57107;SDS011;42987;52.916;6.542;2023-04-30T04:02:23;14.25;;;8.30;;
57107;SDS011;42987;52.916;6.542;2023-04-30T04:04:49;11.10;;;8.18;;
57107;SDS011;42987;52.916;6.542;2023-04-30T04:07:16;15.07;;;9.43;;
57107;SDS011;42987;52.916;6.542;2023-04-30T04:09:43;14.30;;;8.50;;
57107;SDS011;42987;52.916;6.542;2023-04-30T04:12:09;12.13;;;8.50;;
57107;SDS011;42987;52.916;6.542;2023-04-30T04:14:34;14.35;;;9.38;;
57107;SDS011;42987;52.916;6.542;2023-04-30T04:17:00;10.90;;;7.85;;
57107;SDS011;42987;52.916;6.542;2023-04-30T04:19:26;17.02;;;12.95;;
57107;SDS011;42987;52.916;6.542;2023-04-30T04:21:52;12.80;;;8.43;;
57107;SDS011;42987;52.916;6.542;2023-04-30T04:24:23;9.65;;;7.32;;
57107;SDS011;42987;52.916;6.542;2023-04-30T04:26:49;15.15;;;8.45;;
57107;SDS011;42987;52.916;6.542;2023-04-30T04:29:16;15.00;;;10.80;;
57107;SDS011;42987;52.916;6.542;2023-04-30T04:31:42;13.02;;;8.50;;
57107;SDS011;42987;52.916;6.542;2023-04-30T04:34:08;12.60;;;8.48;;
57107;SDS011;42987;52.916;6.542;2023-04-30T04:36:33;14.18;;;8.82;;
57107;SDS011;42987;52.916;6.542;2023-04-30T04:38:59;14.30;;;8.98;;
57107;SDS011;42987;52.916;6.542;2023-04-30T04:41:26;12.23;;;8.40;;
57107;SDS011;42987;52.916;6.542;2023-04-30T04:43:53;12.65;;;8.93;;
57107;SDS011;42987;52.916;6.542;2023-04-30T04:46:20;12.38;;;9.13;;
57107;SDS011;42987;52.916;6.542;2023-04-30T04:48:47;13.98;;;8.32;;
57107;SDS011;42987;52.916;6.542;2023-04-30T04:51:13;13.18;;;8.23;;
57107;SDS011;42987;52.916;6.542;2023-04-30T04:53:39;12.80;;;8.48;;
57107;SDS011;42987;52.916;6.542;2023-04-30T04:56:05;15.75;;;8.63;;
57107;SDS011;42987;52.916;6.542;2023-04-30T04:58:31;11.50;;;8.45;;
57107;SDS011;42987;52.916;6.542;2023-04-30T05:00:57;14.68;;;7.78;;
57107;SDS011;42987;52.916;6.542;2023-04-30T05:03:24;13.40;;;8.18;;
57107;SDS011;42987;52.916;6.542;2023-04-30T05:05:51;14.75;;;7.88;;
57107;SDS011;42987;52.916;6.542;2023-04-30T05:08:17;12.85;;;7.32;;
57107;SDS011;42987;52.916;6.542;2023-04-30T05:10:42;12.00;;;7.15;;
57107;SDS011;42987;52.916;6.542;2023-04-30T05:13:08;10.90;;;7.05;;
57107;SDS011;42987;52.916;6.542;2023-04-30T05:15:34;11.15;;;6.75;;
57107;SDS011;42987;52.916;6.542;2023-04-30T05:18:00;12.90;;;7.25;;
57107;SDS011;42987;52.916;6.542;2023-04-30T05:20:26;13.63;;;7.47;;
57107;SDS011;42987;52.916;6.542;2023-04-30T05:22:52;13.55;;;7.10;;
57107;SDS011;42987;52.916;6.542;2023-04-30T05:25:18;14.80;;;7.07;;
57107;SDS011;42987;52.916;6.542;2023-04-30T05:27:44;10.05;;;6.80;;
57107;SDS011;42987;52.916;6.542;2023-04-30T05:30:10;13.57;;;7.07;;
57107;SDS011;42987;52.916;6.542;2023-04-30T05:32:36;13.48;;;5.93;;
57107;SDS011;42987;52.916;6.542;2023-04-30T05:35:02;13.10;;;6.55;;
57107;SDS011;42987;52.916;6.542;2023-04-30T05:37:28;12.55;;;6.63;;
57107;SDS011;42987;52.916;6.542;2023-04-30T05:39:54;12.25;;;7.35;;
57107;SDS011;42987;52.916;6.542;2023-04-30T05:42:20;11.18;;;6.10;;
57107;SDS011;42987;52.916;6.542;2023-04-30T05:44:46;12.70;;;6.00;;
57107;SDS011;42987;52.916;6.542;2023-04-30T05:47:12;12.00;;;6.30;;
57107;SDS011;42987;52.916;6.542;2023-04-30T05:49:38;10.90;;;6.53;;
57107;SDS011;42987;52.916;6.542;2023-04-30T05:52:04;12.60;;;6.45;;
57107;SDS011;42987;52.916;6.542;2023-04-30T05:54:30;12.23;;;5.75;;
57107;SDS011;42987;52.916;6.542;2023-04-30T05:56:56;13.60;;;6.13;;
57107;SDS011;42987;52.916;6.542;2023-04-30T05:59:22;9.27;;;5.07;;
57107;SDS011;42987;52.916;6.542;2023-04-30T06:01:51;13.05;;;5.32;;
57107;SDS011;42987;52.916;6.542;2023-04-30T06:04:17;12.93;;;5.65;;
57107;SDS011;42987;52.916;6.542;2023-04-30T06:06:43;14.50;;;6.35;;
57107;SDS011;42987;52.916;6.542;2023-04-30T06:09:08;11.15;;;5.40;;
57107;SDS011;42987;52.916;6.542;2023-04-30T06:11:34;12.40;;;5.00;;
57107;SDS011;42987;52.916;6.542;2023-04-30T06:14:04;12.13;;;4.60;;
57107;SDS011;42987;52.916;6.542;2023-04-30T06:16:30;12.07;;;6.20;;
57107;SDS011;42987;52.916;6.542;2023-04-30T06:18:56;12.57;;;5.07;;
57107;SDS011;42987;52.916;6.542;2023-04-30T06:21:21;12.38;;;5.63;;
57107;SDS011;42987;52.916;6.542;2023-04-30T06:23:50;10.00;;;5.10;;
57107;SDS011;42987;52.916;6.542;2023-04-30T06:26:17;14.48;;;5.20;;
57107;SDS011;42987;52.916;6.542;2023-04-30T06:28:43;13.00;;;4.65;;
57107;SDS011;42987;52.916;6.542;2023-04-30T06:31:10;12.40;;;4.32;;
57107;SDS011;42987;52.916;6.542;2023-04-30T06:33:36;13.90;;;4.40;;
57107;SDS011;42987;52.916;6.542;2023-04-30T06:36:02;12.43;;;3.78;;
57107;SDS011;42987;52.916;6.542;2023-04-30T06:38:28;10.52;;;4.15;;
57107;SDS011;42987;52.916;6.542;2023-04-30T06:40:54;11.43;;;4.32;;
57107;SDS011;42987;52.916;6.542;2023-04-30T06:43:20;11.77;;;4.65;;
57107;SDS011;42987;52.916;6.542;2023-04-30T06:45:45;11.95;;;4.30;;
57107;SDS011;42987;52.916;6.542;2023-04-30T06:48:11;13.88;;;3.95;;
57107;SDS011;42987;52.916;6.542;2023-04-30T06:50:37;8.40;;;3.60;;
57107;SDS011;42987;52.916;6.542;2023-04-30T06:53:12;10.90;;;3.80;;
57107;SDS011;42987;52.916;6.542;2023-04-30T06:55:39;8.85;;;3.90;;
57107;SDS011;42987;52.916;6.542;2023-04-30T06:58:05;11.18;;;4.03;;
57107;SDS011;42987;52.916;6.542;2023-04-30T07:00:32;12.85;;;3.92;;
57107;SDS011;42987;52.916;6.542;2023-04-30T07:02:58;10.35;;;3.67;;
57107;SDS011;42987;52.916;6.542;2023-04-30T07:05:26;9.43;;;3.70;;
57107;SDS011;42987;52.916;6.542;2023-04-30T07:07:53;10.48;;;4.00;;
57107;SDS011;42987;52.916;6.542;2023-04-30T07:10:19;9.98;;;3.05;;
57107;SDS011;42987;52.916;6.542;2023-04-30T07:12:44;9.43;;;3.25;;
57107;SDS011;42987;52.916;6.542;2023-04-30T07:15:10;9.52;;;4.30;;
57107;SDS011;42987;52.916;6.542;2023-04-30T07:17:37;11.38;;;3.35;;
57107;SDS011;42987;52.916;6.542;2023-04-30T07:20:03;12.20;;;3.78;;
57107;SDS011;42987;52.916;6.542;2023-04-30T07:22:30;13.45;;;4.57;;
57107;SDS011;42987;52.916;6.542;2023-04-30T07:24:55;12.40;;;4.10;;
57107;SDS011;42987;52.916;6.542;2023-04-30T07:27:22;9.48;;;3.55;;
57107;SDS011;42987;52.916;6.542;2023-04-30T07:29:47;9.70;;;3.55;;
57107;SDS011;42987;52.916;6.542;2023-04-30T07:32:13;10.25;;;3.78;;
57107;SDS011;42987;52.916;6.542;2023-04-30T07:34:40;10.35;;;3.95;;
57107;SDS011;42987;52.916;6.542;2023-04-30T07:37:07;8.20;;;3.17;;
57107;SDS011;42987;52.916;6.542;2023-04-30T07:39:33;7.75;;;3.33;;
57107;SDS011;42987;52.916;6.542;2023-04-30T07:42:01;10.70;;;3.38;;
57107;SDS011;42987;52.916;6.542;2023-04-30T07:44:27;8.82;;;3.00;;
57107;SDS011;42987;52.916;6.542;2023-04-30T07:46:53;11.15;;;4.07;;
57107;SDS011;42987;52.916;6.542;2023-04-30T07:49:19;16.80;;;4.10;;
57107;SDS011;42987;52.916;6.542;2023-04-30T07:51:45;9.07;;;3.00;;
57107;SDS011;42987;52.916;6.542;2023-04-30T07:54:12;8.82;;;3.67;;
57107;SDS011;42987;52.916;6.542;2023-04-30T07:56:38;10.82;;;3.22;;
57107;SDS011;42987;52.916;6.542;2023-04-30T07:59:04;7.82;;;3.70;;
57107;SDS011;42987;52.916;6.542;2023-04-30T08:01:30;10.27;;;4.38;;
57107;SDS011;42987;52.916;6.542;2023-04-30T08:03:56;10.43;;;4.07;;
57107;SDS011;42987;52.916;6.542;2023-04-30T08:06:22;8.48;;;3.58;;
57107;SDS011;42987;52.916;6.542;2023-04-30T08:08:48;10.07;;;4.43;;
57107;SDS011;42987;52.916;6.542;2023-04-30T08:11:14;10.57;;;3.38;;
57107;SDS011;42987;52.916;6.542;2023-04-30T08:13:40;12.45;;;3.67;;
57107;SDS011;42987;52.916;6.542;2023-04-30T08:16:06;10.20;;;3.92;;
57107;SDS011;42987;52.916;6.542;2023-04-30T08:18:33;10.73;;;3.80;;
57107;SDS011;42987;52.916;6.542;2023-04-30T08:20:59;9.07;;;3.60;;
57107;SDS011;42987;52.916;6.542;2023-04-30T08:23:25;9.95;;;3.65;;
57107;SDS011;42987;52.916;6.542;2023-04-30T08:25:51;11.60;;;3.47;;
57107;SDS011;42987;52.916;6.542;2023-04-30T08:28:17;10.32;;;3.45;;
57107;SDS011;42987;52.916;6.542;2023-04-30T08:30:43;10.13;;;3.35;;
57107;SDS011;42987;52.916;6.542;2023-04-30T08:33:09;8.50;;;3.45;;
57107;SDS011;42987;52.916;6.542;2023-04-30T08:35:35;8.75;;;3.78;;
57107;SDS011;42987;52.916;6.542;2023-04-30T08:38:01;7.65;;;3.22;;
57107;SDS011;42987;52.916;6.542;2023-04-30T08:40:27;13.38;;;4.07;;
57107;SDS011;42987;52.916;6.542;2023-04-30T08:43:12;9.30;;;3.47;;
57107;SDS011;42987;52.916;6.542;2023-04-30T08:45:39;7.78;;;2.95;;
57107;SDS011;42987;52.916;6.542;2023-04-30T08:48:08;9.52;;;3.70;;
57107;SDS011;42987;52.916;6.542;2023-04-30T08:50:35;9.27;;;4.00;;
57107;SDS011;42987;52.916;6.542;2023-04-30T08:53:01;7.63;;;2.90;;
57107;SDS011;42987;52.916;6.542;2023-04-30T08:55:27;10.27;;;3.05;;
57107;SDS011;42987;52.916;6.542;2023-04-30T08:57:53;10.93;;;3.42;;
57107;SDS011;42987;52.916;6.542;2023-04-30T09:00:19;6.45;;;2.80;;
57107;SDS011;42987;52.916;6.542;2023-04-30T09:02:45;9.70;;;3.10;;
57107;SDS011;42987;52.916;6.542;2023-04-30T09:05:13;7.15;;;2.60;;
57107;SDS011;42987;52.916;6.542;2023-04-30T09:07:40;8.00;;;3.15;;
57107;SDS011;42987;52.916;6.542;2023-04-30T09:10:14;10.82;;;3.00;;
57107;SDS011;42987;52.916;6.542;2023-04-30T09:12:57;8.98;;;3.38;;
57107;SDS011;42987;52.916;6.542;2023-04-30T09:15:26;9.13;;;3.15;;
57107;SDS011;42987;52.916;6.542;2023-04-30T09:18:15;8.27;;;2.53;;
57107;SDS011;42987;52.916;6.542;2023-04-30T09:21:00;8.30;;;2.55;;
57107;SDS011;42987;52.916;6.542;2023-04-30T09:23:27;7.70;;;2.80;;
57107;SDS011;42987;52.916;6.542;2023-04-30T09:25:53;8.43;;;2.95;;
57107;SDS011;42987;52.916;6.542;2023-04-30T09:28:21;8.65;;;2.97;;
57107;SDS011;42987;52.916;6.542;2023-04-30T09:30:49;10.10;;;3.05;;
57107;SDS011;42987;52.916;6.542;2023-04-30T09:33:16;8.05;;;2.78;;
57107;SDS011;42987;52.916;6.542;2023-04-30T09:35:42;10.13;;;3.63;;
57107;SDS011;42987;52.916;6.542;2023-04-30T09:38:24;8.27;;;2.72;;
57107;SDS011;42987;52.916;6.542;2023-04-30T09:40:57;11.02;;;2.70;;
57107;SDS011;42987;52.916;6.542;2023-04-30T09:43:24;6.78;;;2.78;;
57107;SDS011;42987;52.916;6.542;2023-04-30T09:45:50;9.77;;;3.00;;
57107;SDS011;42987;52.916;6.542;2023-04-30T09:48:18;9.20;;;3.28;;
57107;SDS011;42987;52.916;6.542;2023-04-30T09:50:49;9.20;;;3.05;;
57107;SDS011;42987;52.916;6.542;2023-04-30T09:53:15;7.38;;;3.20;;
57107;SDS011;42987;52.916;6.542;2023-04-30T09:55:45;7.95;;;3.13;;
57107;SDS011;42987;52.916;6.542;2023-04-30T09:58:13;9.23;;;3.58;;
57107;SDS011;42987;52.916;6.542;2023-04-30T10:00:39;8.57;;;2.95;;
57107;SDS011;42987;52.916;6.542;2023-04-30T10:03:10;8.02;;;2.90;;
57107;SDS011;42987;52.916;6.542;2023-04-30T10:05:47;8.32;;;3.00;;
57107;SDS011;42987;52.916;6.542;2023-04-30T10:08:21;8.63;;;2.75;;
57107;SDS011;42987;52.916;6.542;2023-04-30T10:10:57;7.65;;;2.90;;
57107;SDS011;42987;52.916;6.542;2023-04-30T10:13:27;5.65;;;2.60;;
57107;SDS011;42987;52.916;6.542;2023-04-30T10:16:03;6.63;;;2.50;;
57107;SDS011;42987;52.916;6.542;2023-04-30T10:18:36;8.18;;;2.53;;
57107;SDS011;42987;52.916;6.542;2023-04-30T10:21:05;8.80;;;2.72;;
57107;SDS011;42987;52.916;6.542;2023-04-30T10:23:39;9.75;;;2.70;;
57107;SDS011;42987;52.916;6.542;2023-04-30T10:26:09;8.68;;;3.05;;
57107;SDS011;42987;52.916;6.542;2023-04-30T10:28:36;7.18;;;3.22;;
57107;SDS011;42987;52.916;6.542;2023-04-30T10:31:02;5.25;;;2.53;;
57107;SDS011;42987;52.916;6.542;2023-04-30T10:36:37;8.52;;;2.80;;
57107;SDS011;42987;52.916;6.542;2023-04-30T10:39:06;6.38;;;2.67;;
57107;SDS011;42987;52.916;6.542;2023-04-30T10:41:32;8.30;;;3.15;;
57107;SDS011;42987;52.916;6.542;2023-04-30T10:44:01;8.63;;;2.90;;
57107;SDS011;42987;52.916;6.542;2023-04-30T10:46:29;5.95;;;2.88;;
57107;SDS011;42987;52.916;6.542;2023-04-30T10:48:55;6.43;;;2.55;;
57107;SDS011;42987;52.916;6.542;2023-04-30T10:51:21;5.15;;;2.60;;
57107;SDS011;42987;52.916;6.542;2023-04-30T10:53:50;5.43;;;2.30;;
57107;SDS011;42987;52.916;6.542;2023-04-30T10:56:30;4.55;;;2.15;;
57107;SDS011;42987;52.916;6.542;2023-04-30T10:59:00;5.25;;;2.80;;
57107;SDS011;42987;52.916;6.542;2023-04-30T11:01:27;5.07;;;2.65;;
57107;SDS011;42987;52.916;6.542;2023-04-30T11:04:12;4.80;;;2.20;;
57107;SDS011;42987;52.916;6.542;2023-04-30T11:09:41;6.03;;;2.50;;
57107;SDS011;42987;52.916;6.542;2023-04-30T11:12:14;5.70;;;2.55;;
57107;SDS011;42987;52.916;6.542;2023-04-30T11:15:05;2.85;;;1.33;;
57107;SDS011;42987;52.916;6.542;2023-04-30T11:17:36;7.78;;;3.10;;
57107;SDS011;42987;52.916;6.542;2023-04-30T11:20:02;6.88;;;2.20;;
57107;SDS011;42987;52.916;6.542;2023-04-30T11:22:29;4.55;;;2.13;;
57107;SDS011;42987;52.916;6.542;2023-04-30T11:25:07;4.63;;;1.90;;
57107;SDS011;42987;52.916;6.542;2023-04-30T11:27:37;4.80;;;2.50;;
57107;SDS011;42987;52.916;6.542;2023-04-30T11:30:16;5.50;;;2.45;;
57107;SDS011;42987;52.916;6.542;2023-04-30T11:32:43;4.85;;;2.22;;
57107;SDS011;42987;52.916;6.542;2023-04-30T11:35:11;7.20;;;2.38;;
57107;SDS011;42987;52.916;6.542;2023-04-30T11:37:42;6.50;;;2.25;;
57107;SDS011;42987;52.916;6.542;2023-04-30T11:40:10;6.45;;;2.30;;
57107;SDS011;42987;52.916;6.542;2023-04-30T11:42:37;6.88;;;2.58;;
57107;SDS011;42987;52.916;6.542;2023-04-30T11:45:14;7.32;;;2.50;;
57107;SDS011;42987;52.916;6.542;2023-04-30T11:50:09;4.18;;;1.75;;
57107;SDS011;42987;52.916;6.542;2023-04-30T11:52:36;6.28;;;2.28;;
57107;SDS011;42987;52.916;6.542;2023-04-30T11:55:13;4.97;;;2.40;;
57107;SDS011;42987;52.916;6.542;2023-04-30T11:57:44;5.13;;;2.40;;
57107;SDS011;42987;52.916;6.542;2023-04-30T12:00:12;5.93;;;2.38;;
57107;SDS011;42987;52.916;6.542;2023-04-30T12:02:38;4.40;;;2.30;;
57107;SDS011;42987;52.916;6.542;2023-04-30T12:05:10;5.00;;;2.38;;
57107;SDS011;42987;52.916;6.542;2023-04-30T12:08:06;6.03;;;2.50;;
57107;SDS011;42987;52.916;6.542;2023-04-30T12:10:32;7.55;;;2.67;;
57107;SDS011;42987;52.916;6.542;2023-04-30T12:12:57;4.70;;;2.10;;
57107;SDS011;42987;52.916;6.542;2023-04-30T12:15:24;5.80;;;2.35;;
57107;SDS011;42987;52.916;6.542;2023-04-30T12:17:52;6.30;;;2.45;;
57107;SDS011;42987;52.916;6.542;2023-04-30T12:20:19;6.38;;;2.47;;
57107;SDS011;42987;52.916;6.542;2023-04-30T12:22:56;4.35;;;2.35;;
57107;SDS011;42987;52.916;6.542;2023-04-30T12:25:22;6.13;;;3.05;;
57107;SDS011;42987;52.916;6.542;2023-04-30T12:27:52;6.32;;;2.47;;
57107;SDS011;42987;52.916;6.542;2023-04-30T12:30:24;6.07;;;2.50;;
57107;SDS011;42987;52.916;6.542;2023-04-30T12:32:57;5.38;;;2.40;;
57107;SDS011;42987;52.916;6.542;2023-04-30T12:35:26;5.78;;;2.30;;
57107;SDS011;42987;52.916;6.542;2023-04-30T12:37:55;6.70;;;2.53;;
57107;SDS011;42987;52.916;6.542;2023-04-30T12:40:27;5.93;;;2.50;;
57107;SDS011;42987;52.916;6.542;2023-04-30T12:42:59;5.68;;;2.70;;
57107;SDS011;42987;52.916;6.542;2023-04-30T12:45:45;4.93;;;2.15;;
57107;SDS011;42987;52.916;6.542;2023-04-30T12:48:21;4.35;;;2.17;;
57107;SDS011;42987;52.916;6.542;2023-04-30T12:50:59;5.68;;;2.47;;
57107;SDS011;42987;52.916;6.542;2023-04-30T12:53:27;4.65;;;2.17;;
57107;SDS011;42987;52.916;6.542;2023-04-30T12:56:06;5.72;;;2.40;;
57107;SDS011;42987;52.916;6.542;2023-04-30T12:58:39;6.38;;;2.70;;
57107;SDS011;42987;52.916;6.542;2023-04-30T13:01:21;5.25;;;2.40;;
57107;SDS011;42987;52.916;6.542;2023-04-30T13:03:48;6.55;;;2.50;;
57107;SDS011;42987;52.916;6.542;2023-04-30T13:06:15;6.28;;;2.30;;
57107;SDS011;42987;52.916;6.542;2023-04-30T13:08:41;3.80;;;2.10;;
57107;SDS011;42987;52.916;6.542;2023-04-30T13:11:07;5.85;;;2.58;;
57107;SDS011;42987;52.916;6.542;2023-04-30T13:13:33;5.50;;;2.38;;
57107;SDS011;42987;52.916;6.542;2023-04-30T13:15:58;3.88;;;2.03;;
57107;SDS011;42987;52.916;6.542;2023-04-30T13:18:24;6.80;;;2.67;;
57107;SDS011;42987;52.916;6.542;2023-04-30T13:20:50;5.00;;;2.60;;
57107;SDS011;42987;52.916;6.542;2023-04-30T13:23:16;4.72;;;2.03;;
57107;SDS011;42987;52.916;6.542;2023-04-30T13:25:43;6.88;;;2.40;;
57107;SDS011;42987;52.916;6.542;2023-04-30T13:28:08;5.88;;;2.40;;
57107;SDS011;42987;52.916;6.542;2023-04-30T13:30:34;6.72;;;2.63;;
57107;SDS011;42987;52.916;6.542;2023-04-30T13:33:00;5.47;;;2.33;;
57107;SDS011;42987;52.916;6.542;2023-04-30T13:35:26;5.68;;;2.40;;
57107;SDS011;42987;52.916;6.542;2023-04-30T13:37:52;4.07;;;2.40;;
57107;SDS011;42987;52.916;6.542;2023-04-30T13:40:19;4.63;;;2.45;;
57107;SDS011;42987;52.916;6.542;2023-04-30T13:42:45;5.80;;;1.85;;
57107;SDS011;42987;52.916;6.542;2023-04-30T13:45:12;6.15;;;2.30;;
57107;SDS011;42987;52.916;6.542;2023-04-30T13:47:38;4.22;;;2.17;;
57107;SDS011;42987;52.916;6.542;2023-04-30T13:50:05;5.07;;;2.00;;
57107;SDS011;42987;52.916;6.542;2023-04-30T13:52:32;3.38;;;1.73;;
57107;SDS011;42987;52.916;6.542;2023-04-30T13:54:58;5.57;;;1.92;;
57107;SDS011;42987;52.916;6.542;2023-04-30T13:57:25;5.68;;;2.33;;
57107;SDS011;42987;52.916;6.542;2023-04-30T13:59:52;4.35;;;1.80;;
57107;SDS011;42987;52.916;6.542;2023-04-30T14:02:21;4.28;;;1.88;;
57107;SDS011;42987;52.916;6.542;2023-04-30T14:04:47;4.53;;;1.77;;
57107;SDS011;42987;52.916;6.542;2023-04-30T14:07:12;3.42;;;1.42;;
57107;SDS011;42987;52.916;6.542;2023-04-30T14:09:38;4.55;;;1.88;;
57107;SDS011;42987;52.916;6.542;2023-04-30T14:12:04;5.82;;;2.10;;
57107;SDS011;42987;52.916;6.542;2023-04-30T14:14:30;3.70;;;1.60;;
57107;SDS011;42987;52.916;6.542;2023-04-30T14:16:56;3.85;;;1.80;;
57107;SDS011;42987;52.916;6.542;2023-04-30T14:19:21;3.45;;;1.73;;
57107;SDS011;42987;52.916;6.542;2023-04-30T14:21:47;3.20;;;1.80;;
57107;SDS011;42987;52.916;6.542;2023-04-30T14:24:13;4.45;;;2.08;;
57107;SDS011;42987;52.916;6.542;2023-04-30T14:26:46;4.68;;;1.88;;
57107;SDS011;42987;52.916;6.542;2023-04-30T14:29:12;3.97;;;2.05;;
57107;SDS011;42987;52.916;6.542;2023-04-30T14:31:38;4.70;;;1.95;;
57107;SDS011;42987;52.916;6.542;2023-04-30T14:34:03;4.20;;;1.98;;
57107;SDS011;42987;52.916;6.542;2023-04-30T14:36:29;5.05;;;1.90;;
57107;SDS011;42987;52.916;6.542;2023-04-30T14:38:55;3.28;;;1.80;;
57107;SDS011;42987;52.916;6.542;2023-04-30T14:41:21;3.97;;;2.10;;
57107;SDS011;42987;52.916;6.542;2023-04-30T14:43:47;3.60;;;2.00;;
57107;SDS011;42987;52.916;6.542;2023-04-30T14:46:13;3.75;;;1.38;;
57107;SDS011;42987;52.916;6.542;2023-04-30T14:48:39;2.88;;;1.38;;
57107;SDS011;42987;52.916;6.542;2023-04-30T14:51:05;5.45;;;1.80;;
57107;SDS011;42987;52.916;6.542;2023-04-30T14:53:30;3.75;;;1.85;;
57107;SDS011;42987;52.916;6.542;2023-04-30T14:55:57;2.95;;;1.67;;
57107;SDS011;42987;52.916;6.542;2023-04-30T14:58:23;5.35;;;2.13;;
57107;SDS011;42987;52.916;6.542;2023-04-30T15:00:49;5.40;;;2.00;;
57107;SDS011;42987;52.916;6.542;2023-04-30T15:03:15;3.80;;;1.98;;
57107;SDS011;42987;52.916;6.542;2023-04-30T15:05:41;3.05;;;1.70;;
57107;SDS011;42987;52.916;6.542;2023-04-30T15:08:07;3.85;;;1.60;;
57107;SDS011;42987;52.916;6.542;2023-04-30T15:10:33;4.22;;;1.80;;
57107;SDS011;42987;52.916;6.542;2023-04-30T15:13:00;3.15;;;1.40;;
57107;SDS011;42987;52.916;6.542;2023-04-30T15:15:27;3.08;;;1.70;;
57107;SDS011;42987;52.916;6.542;2023-04-30T15:17:54;4.32;;;1.50;;
57107;SDS011;42987;52.916;6.542;2023-04-30T15:20:20;4.30;;;1.60;;
57107;SDS011;42987;52.916;6.542;2023-04-30T15:22:46;4.22;;;1.67;;
57107;SDS011;42987;52.916;6.542;2023-04-30T15:25:12;3.95;;;1.52;;